Terminal Aerodrome Forecast
Issued by NWS

Current Version | Previous Version | Graphics & Text | Print | Product List | Glossary On
Versions: 1 2 3 4 5 6 7 8 9 10 11 12 13 14 15
000
FTUS41 KILN 201100
TAFLUK
TAF
KLUK 201121Z 2012/2112 00000KT P6SM OVC025
      TEMPO 2012/2013 5SM -SN
     FM210800 00000KT P6SM SCT025
     FM211000 00000KT 5SM BR SCT025=

USA.gov is the U.S. government's official web portal to all federal, state and local government web resources and services.